Date,TemperatureHighF,TemperatureAvgF,TemperatureLowF,DewpointHighF,DewpointAvgF,DewpointLowF,HumidityHigh,HumidityAvg,HumidityLow,PressureMaxIn,PressureMinIn,WindSpeedMaxMPH,WindSpeedAvgMPH,GustSpeedMaxMPH,PrecipitationSumIn
2013-1-1,64,54,47,64,52,43,99,95,85,0.00,40.00,9,7,22,2.49
2013-1-2,47,43,40,43,39,36,88,85,81,0.00,40.00,7,5,16,0.02
2013-1-3,56,44,33,38,35,28,96,73,37,0.00,40.00,9,5,17,0.00
2013-1-4,48,44,41,38,36,33,83,72,61,0.00,40.00,8,5,14,0.01
2013-1-5,45,43,42,44,42,37,98,96,73,0.00,40.00,6,4,13,1.07
2013-1-6,59,47,38,46,42,37,98,86,50,0.00,40.00,8,6,17,0.05
2013-1-7,59,45,34,45,39,34,98,82,48,0.00,40.00,6,5,12,0.01
2013-1-8,62,54,46,62,52,42,99,94,83,0.00,40.00,9,6,25,0.55
2013-1-9,65,63,60,65,63,60,99,99,99,0.00,40.00,13,6,24,2.75
2013-1-10,69,62,53,65,60,52,99,91,65,0.00,40.00,10,5,22,1.03
2013-1-11,76,60,44,62,52,44,99,80,45,0.00,40.00,7,4,16,0.07
2013-1-12,75,72,63,71,69,62,99,92,80,0.00,40.00,12,9,25,0.06
2013-1-13,72,52,43,69,50,40,97,91,86,0.00,40.00,11,8,26,0.61
2013-1-14,44,40,37,42,38,36,96,91,82,0.00,40.00,10,7,19,0.35
2013-1-15,38,36,34,36,34,32,97,94,89,0.00,40.00,8,6,17,0.08
2013-1-16,53,39,33,36,33,28,94,78,46,0.00,40.00,8,5,17,0.01
2013-1-17,62,41,28,39,31,27,95,73,30,0.00,40.00,8,3,14,0.00
2013-1-18,63,44,32,39,32,24,97,72,22,0.00,40.00,7,4,13,0.00
2013-1-19,66,45,30,46,39,29,97,82,45,0.00,40.00,5,3,11,0.00
2013-1-20,70,50,35,53,43,34,98,81,40,0.00,40.00,4,1,7,0.00
2013-1-21,70,51,39,53,45,38,98,83,47,0.00,40.00,5,1,13,0.00
2013-1-22,70,52,38,48,43,36,95,76,44,0.00,40.00,6,4,12,0.00
2013-1-23,74,58,44,60,51,43,98,81,46,0.00,40.00,8,5,18,0.00
2013-1-24,73,61,50,64,58,49,99,90,70,0.00,40.00,9,5,16,0.00
2013-1-25,77,65,56,65,59,56,99,83,50,0.00,40.00,10,5,19,0.00
2013-1-26,77,64,57,65,59,54,99,86,47,0.00,40.00,6,4,12,0.00
2013-1-27,76,64,53,63,59,52,99,85,60,0.00,40.00,11,7,21,0.02
2013-1-28,78,70,65,66,64,62,95,83,62,0.00,40.00,11,8,23,0.01
2013-1-29,76,72,69,70,68,66,94,88,74,0.00,40.00,15,11,30,0.22
2013-1-30,72,54,38,69,38,27,97,60,34,0.00,40.00,18,10,36,1.02
2013-1-31,66,54,30,41,29,22,96,45,20,0.00,40.00,7,6,16,0.00
2013-2-1,70,54,42,45,40,33,92,65,26,0.00,40.00,9,4,15,0.00
2013-2-2,74,56,40,53,47,39,97,76,39,0.00,40.00,8,5,16,0.00
2013-2-3,73,56,44,53,41,28,97,67,19,0.00,40.00,6,4,15,0.00
2013-2-4,65,54,44,61,52,42,98,92,75,0.00,40.00,6,3,12,0.04
2013-2-5,79,64,59,65,61,58,99,90,56,0.00,40.00,6,3,11,0.18
2013-2-6,63,59,56,62,58,55,99,98,95,0.00,40.00,9,4,17,0.78
2013-2-7,69,60,55,62,58,55,99,92,77,0.00,40.00,5,3,11,0.19
2013-2-8,64,58,50,59,54,48,99,84,64,0.00,40.00,8,6,19,0.00
2013-2-9,65,54,44,61,51,43,98,90,79,0.00,40.00,9,6,21,0.00
2013-2-10,72,64,60,69,62,58,98,93,85,0.00,40.00,11,5,31,0.47
2013-2-11,60,54,51,59,52,49,98,95,85,0.00,40.00,10,7,20,0.85
2013-2-12,60,55,52,59,54,51,99,96,93,0.00,40.00,9,5,15,0.27
2013-2-13,60,51,41,51,42,38,95,75,46,0.00,40.00,11,6,22,0.04
2013-2-14,66,48,33,43,37,32,98,72,32,0.00,40.00,5,4,9,0.00
2013-2-15,69,49,35,46,38,34,98,72,32,0.00,40.00,9,5,20,0.00
2013-2-16,60,46,35,34,27,20,91,52,26,0.00,40.00,11,6,22,0.00
2013-2-17,70,49,33,45,38,31,93,70,32,0.00,40.00,12,6,21,0.00
2013-2-18,70,62,47,63,56,45,96,82,62,0.00,40.00,17,8,32,1.88
2013-2-19,68,53,42,56,40,30,97,68,25,0.00,40.00,9,6,19,0.95
2013-2-20,61,53,46,40,35,23,72,52,28,0.00,40.00,11,7,21,0.00
2013-2-21,72,62,54,70,57,40,98,85,54,0.00,40.00,13,7,29,0.16
2013-2-22,64,56,52,58,52,49,99,85,62,0.00,40.00,7,6,15,0.01
2013-2-23,71,55,46,49,46,43,91,73,39,0.00,40.00,8,5,16,0.01
2013-2-24,71,55,40,50,45,39,96,72,41,0.00,40.00,9,5,15,0.00
2013-2-25,75,63,49,69,50,28,97,68,23,0.00,40.00,18,7,31,0.11
2013-2-26,65,50,44,41,34,29,80,55,32,0.00,40.00,19,9,34,0.01
2013-2-27,74,54,38,47,38,28,96,61,25,0.00,40.00,16,6,30,0.00
2013-2-28,56,46,38,34,30,28,76,55,36,0.00,40.00,8,5,19,0.00
2013-3-1,64,47,35,35,30,24,83,56,25,0.00,40.00,10,6,23,0.00
2013-3-2,53,42,33,33,27,22,86,59,32,0.00,40.00,11,6,26,0.00
2013-3-3,67,44,28,38,29,21,93,63,21,0.00,40.00,9,5,17,0.00
2013-3-4,75,61,44,60,52,38,97,74,50,0.00,40.00,15,9,32,0.00
2013-3-5,71,62,45,61,43,28,94,55,21,0.00,40.00,12,7,33,0.00
2013-3-6,69,49,34,37,28,22,79,50,17,0.00,40.00,8,5,16,0.00
2013-3-7,71,52,36,40,35,32,89,58,25,0.00,40.00,6,4,11,0.00
2013-3-8,75,57,40,54,46,38,92,69,43,0.00,40.00,8,5,15,0.00
2013-3-9,72,63,55,62,56,46,95,80,59,0.00,40.00,13,7,28,0.00
2013-3-10,69,60,51,62,57,44,97,90,76,0.00,40.00,13,6,29,0.24
2013-3-11,62,50,40,44,34,29,84,58,29,0.00,40.00,10,6,22,0.01
2013-3-12,73,51,32,40,32,28,96,59,20,0.00,40.00,6,4,13,0.00
2013-3-13,74,55,38,41,33,25,91,53,17,0.00,40.00,9,5,17,0.00
2013-3-14,75,55,38,42,36,30,89,56,22,0.00,40.00,8,5,19,0.00
2013-3-15,79,60,41,57,48,39,95,69,34,0.00,40.00,12,6,22,0.00
2013-3-16,79,65,52,62,56,51,98,75,41,0.00,40.00,11,7,24,0.00
2013-3-17,79,66,56,67,60,55,98,85,54,0.00,40.00,13,6,24,0.00
2013-3-18,88,74,66,68,65,61,97,77,41,0.00,40.00,10,6,20,0.00
2013-3-19,81,67,51,61,48,40,76,52,31,0.00,40.00,9,6,19,0.00
2013-3-20,75,61,50,52,41,31,97,54,21,0.00,40.00,14,8,27,0.21
2013-3-21,71,59,47,51,41,32,75,55,26,0.00,40.00,13,7,26,0.11
2013-3-22,83,70,61,68,63,51,95,79,57,0.00,40.00,11,6,21,0.00
2013-3-23,71,68,64,68,66,59,98,93,84,0.00,40.00,6,4,14,0.01
2013-3-24,64,57,43,60,43,27,96,63,28,0.00,40.00,15,8,31,0.01
2013-3-25,62,47,34,33,26,18,88,49,19,0.00,40.00,10,7,24,0.01
2013-3-26,61,45,30,30,24,19,81,48,20,0.00,40.00,10,5,25,0.00
2013-3-27,70,47,32,36,30,27,86,60,24,0.00,40.00,7,5,14,0.00
2013-3-28,74,67,56,53,51,48,89,59,42,0.00,40.00,7,6,15,0.00
2013-3-29,79,63,52,59,55,51,97,79,45,0.00,40.00,8,6,17,0.00
2013-3-30,77,66,58,61,57,-100,98,81,50,0.00,40.00,11,6,22,0.00
2013-3-31,77,63,59,68,60,48,99,92,61,0.00,40.00,15,5,34,0.43
2013-4-1,83,67,56,65,58,55,99,79,42,0.00,40.00,7,4,12,0.06
2013-4-2,76,65,55,63,59,54,98,81,57,0.00,40.00,8,5,16,0.00
2013-4-3,65,54,48,63,52,47,97,93,85,0.00,40.00,19,8,35,0.92
2013-4-4,51,48,46,47,44,42,97,88,75,0.00,40.00,8,6,17,0.02
2013-4-5,77,58,42,49,44,41,97,65,32,0.00,40.00,7,4,17,0.01
2013-4-6,74,60,49,57,51,47,97,77,47,0.00,40.00,12,6,26,0.00
2013-4-7,79,66,56,62,58,54,97,78,48,0.00,40.00,10,6,21,0.00
2013-4-8,80,72,64,66,63,60,95,77,51,0.00,40.00,13,9,26,0.00
2013-4-9,82,73,67,70,67,64,93,81,59,0.00,40.00,14,10,30,0.00
2013-4-10,80,72,52,71,66,51,97,85,71,0.00,40.00,13,9,26,0.57
2013-4-11,69,53,46,51,47,45,97,83,43,0.00,40.00,11,6,28,4.09
2013-4-12,80,59,42,53,45,41,98,68,26,0.00,40.00,6,3,12,0.12
2013-4-13,82,64,47,57,49,44,96,66,27,0.00,40.00,9,5,17,0.00
2013-4-14,81,66,58,63,59,55,91,78,49,0.00,40.00,8,4,13,0.00
2013-4-15,87,73,61,70,66,60,99,82,51,0.00,40.00,11,6,21,0.00
2013-4-16,82,76,72,73,72,70,97,88,71,0.00,40.00,12,8,24,0.01
2013-4-17,81,76,73,74,71,70,94,84,71,0.00,40.00,15,8,29,0.01
2013-4-18,79,69,51,72,64,47,95,85,74,0.00,40.00,13,10,27,0.25
2013-4-19,65,52,43,47,37,32,87,60,31,0.00,40.00,11,8,26,0.03
2013-4-20,74,54,37,47,38,31,96,62,22,0.00,40.00,9,5,18,0.00
2013-4-21,77,59,43,51,45,41,95,68,32,0.00,40.00,6,5,16,0.00
2013-4-22,81,64,47,57,50,45,94,68,35,0.00,40.00,7,4,15,0.00
2013-4-23,82,69,54,68,62,53,96,79,50,0.00,40.00,11,6,22,0.00
2013-4-24,71,62,50,68,54,47,96,77,51,0.00,40.00,12,7,29,0.97
2013-4-25,74,62,51,52,46,42,88,59,36,0.00,40.00,9,6,18,0.01
2013-4-26,79,68,59,67,59,45,93,73,54,0.00,40.00,10,5,20,0.00
2013-4-27,81,72,66,71,67,65,98,86,67,0.00,40.00,10,5,20,0.00
2013-4-28,82,71,65,66,64,60,97,80,48,0.00,40.00,8,4,15,0.00
2013-4-29,85,68,58,71,62,57,98,82,45,0.00,40.00,11,4,18,0.00
2013-4-30,84,72,62,71,66,61,98,84,55,0.00,40.00,7,5,17,0.29
2013-5-1,84,72,65,69,66,64,98,83,54,0.00,40.00,6,4,12,0.26
2013-5-2,76,67,55,66,62,50,98,84,68,0.00,40.00,10,6,27,0.01
2013-5-3,65,52,46,48,41,34,85,68,31,0.00,40.00,14,9,30,0.01
2013-5-4,80,60,40,45,39,36,96,54,21,0.00,40.00,13,6,25,0.00
2013-5-5,68,55,44,46,43,40,91,66,38,0.00,40.00,10,6,24,0.00
2013-5-6,79,59,45,55,49,43,96,73,38,0.00,40.00,7,4,16,0.00
2013-5-7,87,69,55,61,55,51,95,68,31,0.00,40.00,6,3,11,0.00
2013-5-8,83,68,55,65,59,54,97,75,44,0.00,40.00,10,5,19,0.00
2013-5-9,75,68,61,72,66,60,97,94,85,0.00,40.00,11,5,22,0.61
2013-5-10,76,68,66,68,64,-100,98,91,68,0.00,40.00,11,5,31,4.18
2013-5-11,83,71,63,72,64,-100,98,82,57,0.00,40.00,8,4,15,0.02
2013-5-12,80,68,58,64,59,54,97,75,49,0.00,40.00,10,6,17,0.00
2013-5-13,83,63,49,58,51,47,97,70,28,0.00,40.00,5,4,15,0.00
2013-5-14,85,68,52,66,54,42,97,68,24,0.00,40.00,10,5,19,0.00
2013-5-15,77,66,59,68,61,55,97,86,63,0.00,40.00,8,5,16,0.00
2013-5-16,84,64,65,69,41,-100,98,81,57,0.00,40.00,14,7,25,0.01
2013-5-17,87,75,69,72,61,-100,97,82,61,0.00,40.00,10,6,24,0.01
2013-5-18,89,79,72,73,71,69,96,78,54,0.00,40.00,9,6,19,0.00
2013-5-19,89,80,72,73,70,66,95,75,49,0.00,40.00,13,8,25,0.00
2013-5-20,87,80,76,73,72,70,86,78,61,0.00,40.00,11,8,24,0.00
2013-5-21,89,80,74,74,72,70,92,78,55,0.00,40.00,13,8,28,0.00
2013-5-22,86,76,66,76,70,64,97,83,61,0.00,40.00,8,4,26,0.26
2013-5-23,90,78,70,76,72,69,98,83,54,0.00,40.00,8,4,16,0.01
2013-5-24,91,77,70,77,72,69,98,86,58,0.00,40.00,6,3,12,0.00
2013-5-25,89,77,69,74,70,67,98,83,55,0.00,40.00,9,4,20,0.00
2013-5-26,89,77,68,73,69,67,96,78,48,0.00,40.00,9,5,20,0.00
2013-5-27,88,77,67,72,68,66,98,78,49,0.00,40.00,11,6,20,0.00
2013-5-28,88,78,69,72,68,65,97,76,51,0.00,40.00,11,7,24,0.00
2013-5-29,85,77,70,72,70,68,97,80,56,0.00,40.00,11,7,22,0.00
2013-5-30,88,79,71,75,72,70,98,82,60,0.00,40.00,13,7,25,0.01
2013-5-31,90,81,75,77,74,73,97,81,62,0.00,40.00,11,7,22,0.04
2013-6-1,91,82,76,76,74,72,95,78,56,0.00,40.00,10,7,22,0.02
2013-6-2,85,75,69,74,70,67,97,88,64,0.00,40.00,8,5,20,0.86
2013-6-3,90,77,66,72,68,65,98,77,46,0.00,40.00,7,4,12,0.03
2013-6-4,94,80,68,74,69,66,97,74,42,0.00,40.00,5,4,12,0.00
2013-6-5,96,82,70,78,73,69,97,76,46,0.00,40.00,7,4,12,0.00
2013-6-6,88,76,68,77,72,67,97,89,62,0.00,40.00,14,4,27,0.67
2013-6-7,87,73,66,69,66,60,98,82,47,0.00,40.00,6,4,15,0.66
2013-6-8,89,76,65,72,68,64,97,78,51,0.00,40.00,5,4,14,0.00
2013-6-9,90,73,68,75,70,63,97,91,58,0.00,40.00,7,3,29,0.39
2013-6-10,92,80,66,78,72,65,98,79,50,0.00,40.00,9,4,17,0.06
2013-6-11,94,81,70,78,73,69,98,80,54,0.00,40.00,8,4,15,0.00
2013-6-12,96,82,72,79,74,71,97,78,51,0.00,40.00,7,4,12,0.00
2013-6-13,97,83,72,79,74,71,98,78,48,0.00,40.00,7,3,12,0.00
2013-6-14,97,84,70,78,75,65,97,76,50,0.00,40.00,7,4,35,1.66
2013-6-15,95,81,70,79,74,69,98,82,52,0.00,40.00,7,3,35,1.67
2013-6-16,96,82,72,77,73,69,97,76,46,0.00,40.00,6,4,13,0.00
2013-6-17,95,82,72,77,72,69,97,76,44,0.00,40.00,8,5,15,0.00
2013-6-18,92,79,72,77,73,70,97,83,52,0.00,40.00,9,5,31,0.49
2013-6-19,86,76,72,78,73,70,98,92,70,0.00,40.00,7,3,11,2.16
2013-6-20,94,80,72,79,73,71,98,84,49,0.00,40.00,5,4,11,0.46
2013-6-22,93,86,76,79,74,68,97,70,55,0.00,40.00,7,4,15,0.00
2013-6-23,92,81,72,77,73,71,97,80,52,0.00,40.00,8,5,16,0.00
2013-6-24,91,80,73,79,74,72,97,84,58,0.00,40.00,8,5,18,0.04
2013-6-25,93,82,72,77,73,71,97,78,53,0.00,40.00,8,5,15,0.04
2013-6-26,96,82,72,77,73,71,97,76,47,0.00,40.00,7,4,14,0.00
2013-6-27,95,82,71,78,73,70,97,78,46,0.00,40.00,6,4,17,0.00
2013-6-28,97,84,74,77,74,72,96,76,46,0.00,40.00,9,5,16,0.00
2013-6-29,100,86,76,77,72,67,89,66,38,0.00,40.00,9,6,16,0.00
2013-6-30,95,81,67,70,64,57,93,60,29,0.00,40.00,8,5,21,0.00
2013-7-1,89,77,66,70,64,61,88,68,41,0.00,40.00,6,4,14,0.00
2013-7-2,92,78,65,69,64,60,91,67,37,0.00,40.00,6,4,16,0.00
2013-7-3,94,78,65,69,65,62,93,68,35,0.00,40.00,6,4,12,0.00
2013-7-4,93,78,66,70,66,63,93,69,38,0.00,40.00,5,4,12,0.00
2013-7-5,97,81,68,73,66,60,90,65,31,0.00,40.00,7,5,18,0.00
2013-7-6,94,78,70,74,70,66,96,79,42,0.00,40.00,7,4,15,0.00
2013-7-7,88,78,74,79,74,71,96,87,65,0.00,40.00,10,5,23,0.04
2013-7-8,87,78,72,78,74,71,97,89,65,0.00,40.00,7,4,16,0.45
2013-7-9,96,82,72,78,74,71,97,78,47,0.00,40.00,8,4,16,0.01
2013-7-10,96,82,73,78,70,-100,97,72,44,0.00,40.00,7,4,17,0.00
2013-7-11,95,82,74,79,74,72,96,79,55,0.00,40.00,8,4,15,0.00
2013-7-12,99,84,75,76,73,70,95,74,41,0.00,40.00,7,4,12,0.00
2013-7-13,99,82,72,73,66,49,95,64,19,0.00,40.00,6,4,13,0.00
2013-7-14,89,79,69,73,69,65,93,73,50,0.00,40.00,5,3,10,0.00
2013-7-15,91,78,74,76,73,70,97,86,53,0.00,40.00,8,4,24,0.05
2013-7-16,90,78,75,77,75,65,96,90,61,0.00,40.00,8,4,18,0.07
2013-7-17,89,76,73,76,72,67,97,88,49,0.00,40.00,8,4,26,0.00
2013-7-18,96,79,70,78,71,68,96,80,48,0.00,40.00,8,4,27,0.48
2013-7-19,89,75,70,77,71,69,97,90,59,0.00,40.00,12,3,25,1.23
2013-7-20,91,75,69,78,69,-100,98,84,51,0.00,40.00,6,3,18,0.97
2013-7-21,89,78,72,77,73,71,97,87,63,0.00,40.00,10,4,22,0.02
2013-7-22,94,81,72,80,74,70,97,81,51,0.00,40.00,8,5,21,0.10
2013-7-23,94,83,74,80,74,73,97,78,52,0.00,40.00,8,5,19,0.02
2013-7-24,93,82,72,77,74,71,97,79,52,0.00,40.00,8,4,17,0.00
2013-7-25,97,84,74,78,75,70,95,76,53,0.00,40.00,7,4,14,0.00
2013-7-26,94,83,75,78,74,70,96,77,48,0.00,40.00,8,4,13,0.00
2013-7-27,88,81,74,79,75,71,94,84,70,0.00,40.00,10,5,25,0.56
2013-7-28,90,77,71,77,73,69,96,86,63,0.00,40.00,6,4,21,0.13
2013-7-29,95,80,73,78,72,67,97,80,42,0.00,40.00,8,4,15,0.00
2013-7-30,94,78,69,77,71,68,97,83,44,0.00,40.00,8,4,13,0.00
2013-7-31,96,81,70,77,72,69,97,78,42,0.00,40.00,6,4,14,0.00
2013-8-1,98,85,74,77,74,71,96,74,43,0.00,40.00,6,4,11,0.00
2013-8-2,98,85,74,77,74,72,96,73,45,0.00,40.00,6,4,12,0.00
2013-8-3,97,84,73,77,73,70,96,73,43,0.00,40.00,7,4,15,0.00
2013-8-4,96,83,74,80,74,69,96,78,42,0.00,40.00,8,3,22,0.00
2013-8-5,98,84,74,78,73,67,96,74,38,0.00,40.00,8,5,15,0.00
2013-8-6,98,84,74,77,74,68,96,76,41,0.00,40.00,9,5,16,0.00
2013-8-7,99,85,76,78,74,66,97,73,35,0.00,40.00,9,5,20,0.00
2013-8-8,99,83,74,77,72,64,97,74,32,0.00,40.00,8,4,16,0.00
2013-8-9,101,84,71,78,71,68,96,70,35,0.00,40.00,6,3,18,0.00
2013-8-10,90,78,74,79,74,72,97,88,65,0.00,40.00,8,4,29,0.38
2013-8-11,92,79,72,82,74,71,97,88,59,0.00,40.00,9,3,26,0.06
2013-8-12,97,83,73,79,74,70,97,78,42,0.00,40.00,9,4,17,0.01
2013-8-13,99,84,76,78,71,-100,96,71,40,0.00,40.00,10,5,18,0.00
2013-8-14,94,80,74,77,74,70,97,85,52,0.00,40.00,9,4,22,1.17
2013-8-15,89,71,69,76,59,-100,97,82,57,0.00,40.00,7,4,12,0.83
2013-8-16,94,76,67,72,63,-100,95,73,43,0.00,40.00,7,4,13,0.01
2013-8-17,92,76,67,69,62,-100,92,67,38,0.00,40.00,9,6,16,0.00
2013-8-18,94,79,69,73,68,64,96,72,38,0.00,40.00,8,4,14,0.00
2013-8-19,95,73,67,73,56,-100,94,69,31,0.00,40.00,7,4,14,0.00
2013-8-20,87,75,68,75,68,-100,95,84,59,0.00,40.00,6,4,15,0.00
2013-8-21,96,80,71,77,71,67,96,78,41,0.00,40.00,6,4,26,0.00
2013-8-22,97,81,71,78,72,67,96,77,39,0.00,40.00,6,4,12,0.00
2013-8-23,98,83,72,78,73,68,96,74,42,0.00,40.00,6,3,15,0.00
2013-8-24,95,80,72,75,68,-100,96,73,39,0.00,40.00,9,5,20,0.00
2013-8-25,89,78,73,76,72,70,92,82,55,0.00,40.00,9,6,21,0.01
2013-8-26,84,75,72,74,72,70,96,93,66,0.00,40.00,9,4,16,0.53
2013-8-27,89,75,70,76,71,69,97,89,52,0.00,40.00,5,4,10,0.37
2013-8-28,96,89,78,73,70,67,86,58,41,0.00,40.00,6,4,11,0.00
2013-8-29,96,84,73,75,72,67,96,71,39,0.00,40.00,6,4,14,0.00
2013-8-30,97,83,72,76,72,68,96,74,41,0.00,40.00,7,4,13,0.00
2013-8-31,97,81,71,77,68,-100,96,71,39,0.00,40.00,6,3,12,0.00
2013-9-1,98,82,70,75,70,66,95,71,38,0.00,40.00,7,4,18,0.00
2013-9-2,99,84,71,79,71,63,96,71,33,0.00,40.00,8,4,16,0.00
2013-9-3,98,83,76,77,72,65,93,73,36,0.00,40.00,9,4,17,0.00
2013-9-4,98,81,71,77,72,69,95,76,42,0.00,40.00,7,3,20,0.00
2013-9-5,96,79,72,76,72,67,96,82,39,0.00,40.00,6,3,21,0.00
2013-9-6,95,80,71,76,72,69,96,80,43,0.00,40.00,8,3,15,0.00
2013-9-7,90,76,71,76,70,-100,96,86,59,0.00,40.00,13,4,22,0.14
2013-9-8,95,80,68,78,69,63,97,75,36,0.00,40.00,7,4,14,0.14
2013-9-9,93,80,71,77,70,65,96,76,42,0.00,40.00,9,5,18,0.00
2013-9-10,95,81,70,75,69,65,96,71,38,0.00,40.00,8,4,17,0.00
2013-9-11,95,79,70,75,69,62,95,76,37,0.00,40.00,7,4,12,0.00
2013-9-12,98,82,70,74,66,57,95,66,26,0.00,40.00,7,4,15,0.00
2013-9-13,99,82,70,74,68,61,94,68,32,0.00,40.00,9,4,16,0.11
2013-9-14,96,78,70,75,68,-100,97,76,39,0.00,40.00,8,5,14,0.12
2013-9-15,94,78,69,72,70,65,93,79,47,0.00,40.00,6,4,17,0.00
2013-9-16,96,80,71,73,69,61,95,74,34,0.00,40.00,6,4,13,0.00
2013-9-17,96,82,71,75,70,62,95,71,33,0.00,40.00,7,4,16,0.00
2013-9-18,80,75,72,72,71,70,94,88,75,0.00,40.00,5,3,8,0.00
2013-9-19,92,79,73,78,73,70,96,85,49,0.00,40.00,7,4,22,0.73
2013-9-20,77,75,72,75,74,71,97,96,90,0.00,40.00,7,4,21,3.24
2013-9-21,76,71,68,72,67,-100,97,90,80,0.00,40.00,11,5,20,1.74
2013-9-22,86,70,61,67,58,51,95,70,32,0.00,40.00,10,7,17,0.01
2013-9-23,91,75,62,74,65,56,87,73,49,0.00,40.00,7,4,12,0.00
2013-9-24,90,79,71,80,74,69,96,84,56,0.00,40.00,7,4,13,0.17
2013-9-25,94,77,66,72,61,45,96,67,19,0.00,40.00,6,4,13,0.08
2013-9-26,93,75,61,72,63,59,95,71,33,0.00,40.00,5,3,10,0.00
2013-9-27,91,76,65,74,66,63,96,75,40,0.00,40.00,8,4,14,0.00
2013-9-28,89,76,68,74,67,-100,95,79,52,0.00,40.00,8,5,17,0.00
2013-9-29,81,75,71,75,72,70,96,91,80,0.00,40.00,6,3,24,0.88
2013-9-30,80,72,70,72,70,69,97,94,71,0.00,40.00,7,4,15,5.22
2013-10-1,78,75,73,73,72,72,96,92,83,0.00,40.00,4,4,12,0.04
2013-10-2,87,77,71,77,73,70,97,89,63,0.00,40.00,6,4,14,0.03
2013-10-3,88,77,70,76,72,69,97,87,61,0.00,40.00,5,3,13,0.03
2013-10-4,87,76,70,79,73,69,97,92,76,0.00,40.00,6,3,17,0.27
2013-10-5,88,79,73,77,74,72,97,87,66,0.00,40.00,7,3,12,0.01
2013-10-6,76,65,59,74,57,46,95,77,35,0.00,40.00,8,6,22,0.30
2013-10-7,80,63,52,56,51,48,89,68,37,0.00,40.00,7,5,15,0.00
2013-10-8,79,62,52,59,54,49,94,77,43,0.00,40.00,6,4,12,0.00
2013-10-9,82,65,53,62,56,52,96,76,40,0.00,40.00,4,4,10,0.00
2013-10-10,85,69,55,67,61,54,96,78,49,0.00,40.00,5,3,10,0.00
2013-10-11,88,72,61,71,66,60,96,83,49,0.00,40.00,6,4,13,0.00
2013-10-12,90,76,70,76,69,-100,96,84,55,0.00,40.00,7,4,17,0.87
2013-10-13,80,72,68,73,70,67,97,92,73,0.00,40.00,8,4,14,0.87
2013-10-14,83,75,70,73,71,69,97,88,63,0.00,40.00,5,4,10,0.00
2013-10-15,87,75,69,75,70,67,96,86,57,0.00,40.00,7,3,16,0.02
2013-10-16,82,73,69,73,69,66,97,88,62,0.00,40.00,7,4,15,0.02
2013-10-17,75,64,56,66,60,52,96,87,54,0.00,40.00,7,4,13,0.05
2013-10-18,70,60,52,60,56,50,95,87,68,0.00,40.00,6,4,13,0.02
2013-10-19,71,60,51,60,54,-100,96,84,55,0.00,40.00,9,5,19,0.36
2013-10-20,73,56,44,56,48,43,96,79,40,0.00,40.00,7,4,11,0.01
2013-10-21,73,61,51,66,58,49,95,89,76,0.00,40.00,6,4,14,0.00
2013-10-22,72,62,53,64,59,51,96,89,54,0.00,40.00,8,4,15,0.00
2013-10-23,81,61,48,59,51,47,96,76,31,0.00,40.00,5,4,9,0.00
2013-10-24,83,64,49,61,54,48,96,75,36,0.00,40.00,7,4,12,0.00
2013-10-25,73,60,52,56,51,45,94,76,44,0.00,40.00,9,6,20,0.00
2013-10-26,78,59,45,58,48,-100,93,74,43,0.00,40.00,6,5,12,0.00
2013-10-27,78,65,58,66,62,56,96,88,63,0.00,40.00,9,4,12,0.05
2013-10-28,83,67,57,68,61,-100,96,85,58,0.00,40.00,5,3,9,0.01
2013-10-29,81,70,63,71,65,62,97,86,59,0.00,40.00,9,5,17,0.00
2013-10-30,74,69,66,72,68,65,97,95,93,0.00,40.00,12,5,27,1.81
2013-10-31,76,71,65,74,69,64,96,94,91,0.00,40.00,15,7,31,4.32
2013-11-1,78,64,56,64,58,54,97,83,43,0.00,40.00,5,2,11,0.03
2013-11-2,72,59,49,59,47,-100,96,71,28,0.00,40.00,11,6,24,0.24
2013-11-3,67,53,43,49,44,41,95,76,39,0.00,40.00,7,5,14,0.01
2013-11-4,76,60,46,62,54,44,95,81,56,0.00,40.00,8,5,16,0.00
2013-11-5,79,69,61,68,64,59,95,85,65,0.00,40.00,9,6,18,0.00
2013-11-6,80,68,53,71,65,50,95,89,72,0.00,40.00,9,6,26,0.67
2013-11-7,65,53,46,50,44,40,88,72,40,0.00,40.00,13,8,25,0.66
2013-11-8,67,53,44,48,44,39,90,73,36,0.00,40.00,7,4,14,0.00
2013-11-9,67,55,48,52,46,-100,93,76,46,0.00,40.00,5,4,11,0.00
2013-11-10,74,59,48,56,52,45,92,78,53,0.00,40.00,6,5,11,0.00
2013-11-11,76,59,49,57,52,48,95,79,45,0.00,40.00,6,4,9,0.00
2013-11-12,71,54,41,58,48,30,96,81,57,0.00,40.00,13,8,26,0.00
2013-11-13,56,41,31,34,28,24,80,64,30,0.00,40.00,9,6,20,0.00
2013-11-14,60,42,30,43,34,27,92,77,35,0.00,40.00,6,4,11,0.00
2013-11-15,78,60,45,62,54,43,95,82,56,0.00,40.00,5,4,11,0.00
2013-11-16,77,68,57,71,63,-100,97,90,77,0.00,40.00,11,6,22,0.00
2013-11-17,85,76,72,74,72,69,96,89,66,0.00,40.00,10,6,21,0.18
2013-11-18,73,67,56,72,59,44,96,77,50,0.00,40.00,8,4,18,0.30
2013-11-19,68,55,46,45,43,41,87,65,39,0.00,40.00,9,6,19,0.30
2013-11-20,73,54,40,51,43,33,86,69,39,0.00,40.00,6,4,11,0.00
2013-11-21,75,66,54,70,62,50,94,88,78,0.00,40.00,9,5,17,0.04
2013-11-22,72,66,53,70,64,52,95,94,90,0.00,40.00,8,5,16,0.04
2013-11-23,53,48,42,52,44,-100,96,90,84,0.00,40.00,12,9,24,0.05
2013-11-24,50,43,37,38,30,25,90,64,41,0.00,40.00,11,8,22,0.06
2013-11-25,41,39,36,40,37,34,95,93,88,0.00,40.00,9,6,20,2.46
2013-11-26,41,40,38,40,38,37,95,94,93,0.00,40.00,9,6,19,2.38
2013-11-27,51,38,31,38,32,29,95,81,42,0.00,40.00,8,5,18,0.06
2013-11-28,51,36,29,34,30,27,94,80,41,0.00,40.00,5,3,8,0.00
2013-11-29,62,40,28,39,31,27,94,77,27,0.00,40.00,5,4,9,0.00
2013-11-30,69,46,32,47,37,-100,94,77,41,0.00,40.00,6,4,9,0.00
2013-12-1,68,55,42,56,50,40,95,84,57,0.00,40.00,7,4,13,0.00
2013-12-2,78,65,59,62,59,56,96,83,52,0.00,40.00,9,5,18,0.00
2013-12-3,80,68,60,67,63,58,96,84,58,0.00,40.00,9,6,19,0.00
2013-12-4,79,72,69,70,68,66,92,88,70,0.00,40.00,8,6,20,0.00
2013-12-5,78,66,46,72,63,44,94,89,78,0.00,40.00,9,6,17,0.00
2013-12-6,47,42,39,46,40,34,95,92,82,0.00,40.00,10,7,25,0.11
2013-12-7,40,36,34,35,29,-100,85,80,76,0.00,40.00,11,7,21,0.01
2013-12-8,45,40,35,42,35,30,93,82,73,0.00,40.00,5,3,11,0.00
2013-12-9,44,42,39,43,41,38,99,96,92,0.00,40.00,9,5,15,0.07
2013-12-10,49,40,33,38,35,32,98,84,60,0.00,40.00,9,6,18,0.05
2013-12-11,50,40,31,42,36,31,99,85,63,0.00,40.00,7,4,12,0.01
2013-12-12,56,40,33,38,34,32,97,82,42,0.00,40.00,7,5,14,0.00
2013-12-13,58,46,34,58,42,31,100,86,55,0.00,40.00,6,4,12,0.14
2013-12-14,62,52,43,62,48,-100,100,89,75,0.00,40.00,12,7,23,0.23
2013-12-15,57,41,32,37,34,30,98,79,44,0.00,40.00,10,5,21,0.01
2013-12-16,64,42,28,41,34,28,99,81,29,0.00,40.00,6,3,10,0.00
2013-12-17,71,45,31,48,39,31,100,85,34,0.00,40.00,6,3,10,0.00
2013-12-18,71,48,34,50,41,34,100,81,39,0.00,40.00,7,3,14,0.00
2013-12-19,71,59,46,65,55,44,99,90,65,0.00,40.00,11,6,21,0.05
2013-12-20,74,71,66,70,68,65,97,92,87,0.00,40.00,9,7,21,0.05
2013-12-21,74,67,57,72,65,-100,100,95,90,0.00,40.00,14,8,42,0.95
2013-12-22,61,53,37,61,51,32,100,93,79,0.00,40.00,9,3,21,0.04
2013-12-23,53,40,34,34,32,30,95,77,43,0.00,40.00,9,6,21,0.02
2013-12-24,57,38,28,36,32,28,99,82,37,0.00,40.00,6,4,11,0.00
2013-12-25,60,43,30,43,35,30,99,79,37,0.00,40.00,5,3,11,0.00
2013-12-26,63,48,40,45,41,37,99,80,41,0.00,40.00,5,3,9,0.00
2013-12-27,53,46,42,43,40,38,92,80,59,0.00,40.00,7,4,10,0.00
2013-12-28,56,46,40,43,38,-100,98,77,50,0.00,40.00,5,3,9,0.00
2013-12-29,65,48,33,46,40,33,100,78,36,0.00,40.00,4,3,7,0.00
2013-12-30,48,44,39,46,39,36,94,81,68,0.00,40.00,7,5,14,0.00
2013-12-31,49,42,38,40,37,34,92,83,66,0.00,40.00,7,4,11,0.00
2014-1-1,61,50,42,54,46,39,96,88,73,0.00,40.00,6,3,12,0.00
2014-1-2,56,46,33,56,38,25,100,75,35,0.00,40.00,13,7,25,0.06